Time;durP1;ratioP1;P1;durP2;ratioP2;P2;SDS_P1;SDS_P2;PMS_P1;PMS_P2;Temp;Humidity;BMP_temperature;BMP_pressure;BME280_temperature;BME280_humidity;BME280_pressure;Samples;Min_cycle;Max_cycle;Signal;HPM_P1;HPM_P2
2023/06/21 00:00:45;;;;;;;11.73;10.63;;;19.20;99.90;;;;;;5035658;28;20187;-60
2023/06/21 00:03:11;;;;;;;12.68;11.48;;;19.10;99.90;;;;;;5018008;28;20191;-59
2023/06/21 00:05:39;;;;;;;11.75;10.65;;;19.10;99.90;;;;;;5035796;28;20179;-60
2023/06/21 00:08:05;;;;;;;11.85;10.68;;;19.00;99.90;;;;;;5035692;28;20534;-60
2023/06/21 00:10:31;;;;;;;13.82;10.70;;;19.10;99.90;;;;;;5035606;28;20200;-59
2023/06/21 00:12:58;;;;;;;11.75;10.75;;;19.10;99.90;;;;;;5035540;28;20245;-59
2023/06/21 00:15:25;;;;;;;12.10;10.95;;;19.20;99.90;;;;;;5035464;28;20172;-60
2023/06/21 00:17:50;;;;;;;12.20;11.10;;;19.20;99.90;;;;;;5035364;28;20253;-59
2023/06/21 00:20:17;;;;;;;14.75;11.90;;;19.20;99.90;;;;;;5035566;28;20187;-59
2023/06/21 00:22:45;;;;;;;11.40;10.35;;;19.20;99.90;;;;;;5035473;28;20172;-59
2023/06/21 00:25:11;;;;;;;11.35;10.27;;;19.20;99.90;;;;;;5035278;28;20653;-59
2023/06/21 00:27:37;;;;;;;11.43;10.25;;;19.20;99.90;;;;;;5035207;28;20172;-59
2023/06/21 00:30:03;;;;;;;12.23;11.10;;;19.20;99.90;;;;;;5035164;28;20179;-59
2023/06/21 00:32:29;;;;;;;12.68;10.95;;;19.20;99.90;;;;;;5034992;28;20179;-59
2023/06/21 00:34:54;;;;;;;11.50;10.30;;;19.30;99.90;;;;;;5035296;28;20188;-59
2023/06/21 00:37:20;;;;;;;12.05;10.73;;;19.30;99.90;;;;;;5034997;28;20680;-59
2023/06/21 00:39:46;;;;;;;11.70;10.32;;;19.40;99.90;;;;;;5034974;28;20239;-60
2023/06/21 00:42:11;;;;;;;12.15;10.90;;;19.40;99.90;;;;;;5035024;28;20208;-59
2023/06/21 00:44:37;;;;;;;11.70;10.50;;;19.40;99.90;;;;;;5034847;28;20179;-59
2023/06/21 00:47:04;;;;;;;11.75;10.48;;;19.40;99.90;;;;;;5034760;28;20172;-59
2023/06/21 00:49:30;;;;;;;13.05;10.82;;;19.40;99.90;;;;;;5034932;28;20237;-59
2023/06/21 00:51:59;;;;;;;11.48;10.57;;;19.40;99.90;;;;;;5034917;28;20183;-59
2023/06/21 00:54:31;;;;;;;11.65;10.55;;;19.30;99.90;;;;;;5034805;28;20202;-59
2023/06/21 00:56:57;;;;;;;12.43;11.15;;;19.20;99.90;;;;;;5034695;28;20168;-59
2023/06/21 00:59:27;;;;;;;11.55;10.45;;;19.20;99.90;;;;;;5034513;28;20207;-59
2023/06/21 01:01:57;;;;;;;12.02;10.50;;;19.20;99.90;;;;;;5034381;28;20180;-59
2023/06/21 01:04:24;;;;;;;12.35;11.07;;;19.20;99.90;;;;;;5034612;28;20602;-59
2023/06/21 01:07:13;;;;;;;12.25;10.68;;;19.20;99.90;;;;;;5034365;28;20171;-59
2023/06/21 01:09:59;;;;;;;12.88;10.25;;;19.20;99.90;;;;;;5034392;28;20180;-59
2023/06/21 01:12:47;;;;;;;10.50;9.60;;;19.20;99.90;;;;;;5034309;28;20164;-59
2023/06/21 01:15:20;;;;;;;11.45;10.38;;;19.20;99.90;;;;;;5034278;28;20194;-59
2023/06/21 01:17:51;;;;;;;12.05;10.85;;;19.20;99.90;;;;;;5034375;28;20231;-59
2023/06/21 01:20:24;;;;;;;12.25;11.05;;;19.10;99.90;;;;;;5034174;28;20180;-59
2023/06/21 01:23:23;;;;;;;12.77;11.48;;;19.10;99.90;;;;;;5034183;28;20172;-59
2023/06/21 01:26:39;;;;;;;11.95;10.80;;;19.10;99.90;;;;;;5034185;28;20191;-60
2023/06/21 01:29:16;;;;;;;11.95;10.75;;;19.20;99.90;;;;;;4934921;29;20172;-59
2023/06/21 01:31:44;;;;;;;12.23;10.77;;;19.10;99.90;;;;;;5031345;28;20204;-59
2023/06/21 01:34:10;;;;;;;12.80;11.60;;;19.20;99.90;;;;;;5034012;28;20255;-59
2023/06/21 01:36:39;;;;;;;12.80;11.60;;;19.20;99.90;;;;;;5033953;28;20183;-59
2023/06/21 01:39:09;;;;;;;13.38;12.05;;;19.10;99.90;;;;;;5033758;28;20588;-59
2023/06/21 01:41:35;;;;;;;14.85;12.60;;;19.10;99.90;;;;;;5033683;28;20707;-59
2023/06/21 01:44:02;;;;;;;12.93;11.70;;;19.00;99.90;;;;;;5033356;28;20226;-59
2023/06/21 01:46:28;;;;;;;12.40;11.25;;;19.00;99.90;;;;;;5033612;28;20694;-59
2023/06/21 01:48:55;;;;;;;13.13;11.80;;;19.00;99.90;;;;;;5033765;28;20176;-59
2023/06/21 01:51:22;;;;;;;13.77;12.00;;;19.00;99.90;;;;;;5033659;28;20172;-59
2023/06/21 01:53:48;;;;;;;13.68;12.30;;;19.00;99.90;;;;;;5033625;28;20273;-59
2023/06/21 01:56:17;;;;;;;13.85;12.57;;;18.90;99.90;;;;;;5033629;28;20199;-59
2023/06/21 01:58:43;;;;;;;14.02;12.63;;;19.00;99.90;;;;;;5033689;28;20700;-59
2023/06/21 02:01:11;;;;;;;13.50;12.10;;;19.00;99.90;;;;;;5033544;28;20533;-59
2023/06/21 02:03:39;;;;;;;14.63;13.23;;;19.10;99.90;;;;;;5033506;28;20176;-59
2023/06/21 02:06:06;;;;;;;17.08;13.30;;;19.10;99.90;;;;;;5033520;28;20179;-59
2023/06/21 02:08:33;;;;;;;13.77;12.38;;;19.20;99.90;;;;;;5033396;28;20557;-59
2023/06/21 02:11:02;;;;;;;14.75;13.45;;;19.20;99.90;;;;;;5033684;28;20190;-59
2023/06/21 02:13:28;;;;;;;15.07;13.40;;;19.20;99.90;;;;;;5033779;28;20188;-59
2023/06/21 02:15:54;;;;;;;14.73;13.32;;;19.20;99.90;;;;;;5033366;28;20238;-59
2023/06/21 02:18:23;;;;;;;15.63;13.93;;;19.10;99.90;;;;;;5033065;28;20227;-59
2023/06/21 02:20:50;;;;;;;14.73;13.18;;;19.20;99.90;;;;;;5033266;28;20165;-59
2023/06/21 02:23:16;;;;;;;16.25;14.60;;;19.20;99.90;;;;;;5033114;28;20203;-59
2023/06/21 02:25:41;;;;;;;15.45;13.93;;;19.20;99.90;;;;;;5033413;28;20660;-59
2023/06/21 02:28:07;;;;;;;15.93;14.35;;;19.30;99.90;;;;;;5033345;28;20267;-59
2023/06/21 02:30:32;;;;;;;17.25;14.95;;;19.30;99.90;;;;;;5015631;28;20283;-59
2023/06/21 02:32:58;;;;;;;16.52;13.88;;;19.20;99.90;;;;;;5033119;28;20176;-59
2023/06/21 02:35:24;;;;;;;18.08;14.43;;;19.30;99.90;;;;;;5033141;28;20649;-59
2023/06/21 02:37:50;;;;;;;16.55;14.63;;;19.30;99.90;;;;;;5032881;28;20230;-60
2023/06/21 02:40:16;;;;;;;15.43;13.82;;;19.30;99.90;;;;;;5033273;28;20222;-59
2023/06/21 02:42:41;;;;;;;15.77;14.20;;;19.30;99.90;;;;;;5033252;28;20262;-59
2023/06/21 02:45:11;;;;;;;15.85;14.25;;;19.20;99.90;;;;;;5033361;28;20187;-59
2023/06/21 02:47:37;;;;;;;15.32;13.52;;;19.30;99.90;;;;;;5033129;28;20644;-59
2023/06/21 02:50:04;;;;;;;16.02;14.43;;;19.30;99.90;;;;;;5033041;28;20250;-59
2023/06/21 02:52:30;;;;;;;15.95;14.45;;;19.30;99.90;;;;;;5032845;28;20649;-59
2023/06/21 02:54:55;;;;;;;15.48;14.00;;;19.20;99.90;;;;;;5033851;28;20179;-59
2023/06/21 02:57:21;;;;;;;16.15;14.45;;;19.20;99.90;;;;;;5036993;28;20184;-59
2023/06/21 02:59:49;;;;;;;17.42;15.63;;;19.20;99.90;;;;;;5036926;28;20215;-59
2023/06/21 03:02:16;;;;;;;16.67;14.43;;;19.20;99.90;;;;;;5036750;28;20180;-59
2023/06/21 03:04:43;;;;;;;17.17;15.38;;;19.30;99.90;;;;;;5036713;28;20254;-59
2023/06/21 03:07:08;;;;;;;14.90;13.50;;;19.30;99.90;;;;;;5036975;28;20582;-59
2023/06/21 03:09:34;;;;;;;14.73;13.35;;;19.30;99.90;;;;;;5036869;28;20230;-59
2023/06/21 03:12:07;;;;;;;16.67;14.98;;;19.20;99.90;;;;;;5036800;28;20211;-59
2023/06/21 03:14:37;;;;;;;16.42;14.73;;;19.20;99.90;;;;;;5036676;28;20259;-59
2023/06/21 03:17:04;;;;;;;16.23;14.52;;;19.20;99.90;;;;;;5036402;28;20251;-59
2023/06/21 03:19:30;;;;;;;16.63;14.93;;;19.30;99.90;;;;;;5036513;28;20716;-59
2023/06/21 03:21:55;;;;;;;15.27;13.52;;;19.20;99.90;;;;;;5036575;28;20275;-59
2023/06/21 03:24:21;;;;;;;16.27;14.55;;;19.20;99.90;;;;;;5036512;28;20188;-59
2023/06/21 03:26:47;;;;;;;16.20;14.52;;;19.20;99.90;;;;;;5036446;28;20168;-59
2023/06/21 03:29:12;;;;;;;15.88;14.38;;;19.20;99.90;;;;;;5036470;28;20183;-59
2023/06/21 03:31:38;;;;;;;17.52;14.52;;;19.30;99.90;;;;;;5036445;28;20545;-59
2023/06/21 03:34:04;;;;;;;17.33;15.32;;;19.30;99.90;;;;;;5036123;28;20188;-59
2023/06/21 03:36:29;;;;;;;16.77;15.07;;;19.30;99.90;;;;;;5036366;28;20263;-59
2023/06/21 03:38:55;;;;;;;16.80;14.38;;;19.30;99.90;;;;;;5036184;28;20296;-59
2023/06/21 03:41:21;;;;;;;16.75;14.98;;;19.30;99.90;;;;;;5036259;28;20581;-59
2023/06/21 03:43:46;;;;;;;16.70;14.40;;;19.40;99.90;;;;;;5036265;28;20633;-59
2023/06/21 03:46:12;;;;;;;15.90;14.40;;;19.30;99.90;;;;;;5036049;28;20250;-59
2023/06/21 03:48:38;;;;;;;14.98;13.48;;;19.30;99.90;;;;;;5035881;28;20180;-59
2023/06/21 03:51:03;;;;;;;14.85;13.45;;;19.30;99.90;;;;;;5036122;28;20180;-59
2023/06/21 03:53:29;;;;;;;15.15;13.65;;;19.30;99.90;;;;;;5036106;28;20594;-60
2023/06/21 03:55:54;;;;;;;16.30;14.70;;;19.30;99.90;;;;;;5035911;28;20180;-59
2023/06/21 03:58:20;;;;;;;16.98;14.95;;;19.40;99.90;;;;;;5035888;28;20207;-59
2023/06/21 04:00:46;;;;;;;15.00;13.40;;;19.30;99.90;;;;;;5036011;28;20664;-59
2023/06/21 04:03:11;;;;;;;15.43;13.93;;;19.30;99.90;;;;;;5035705;28;20210;-59
2023/06/21 04:05:37;;;;;;;16.05;14.40;;;19.20;99.90;;;;;;5035609;28;20188;-59
2023/06/21 04:08:03;;;;;;;16.35;13.38;;;19.20;99.90;;;;;;5035069;28;20211;-59
2023/06/21 04:10:29;;;;;;;17.55;13.95;;;19.30;99.90;;;;;;5035651;28;20262;-59
2023/06/21 04:12:54;;;;;;;15.75;14.25;;;19.30;99.90;;;;;;5036141;28;20183;-59
2023/06/21 04:15:21;;;;;;;14.77;13.13;;;19.20;99.90;;;;;;5035463;28;20182;-59
2023/06/21 04:17:46;;;;;;;14.30;13.00;;;19.20;99.90;;;;;;5035286;28;20232;-60
2023/06/21 04:20:13;;;;;;;14.57;13.15;;;19.20;99.90;;;;;;5035362;28;20641;-59
2023/06/21 04:22:40;;;;;;;13.77;12.43;;;19.20;99.90;;;;;;5034953;28;20176;-59
2023/06/21 04:25:07;;;;;;;14.15;12.38;;;19.30;99.90;;;;;;5035338;28;20172;-59
2023/06/21 04:27:32;;;;;;;13.10;11.80;;;19.20;99.90;;;;;;5035392;28;20175;-59
2023/06/21 04:29:59;;;;;;;13.13;11.77;;;19.20;99.90;;;;;;5035181;28;20784;-59
2023/06/21 04:32:24;;;;;;;13.18;11.80;;;19.20;99.90;;;;;;5035085;28;20523;-59
2023/06/21 04:34:50;;;;;;;11.95;10.75;;;19.20;99.90;;;;;;5017688;28;20180;-59
2023/06/21 04:37:18;;;;;;;13.35;12.00;;;19.30;99.90;;;;;;5035314;28;20188;-60
2023/06/21 04:39:43;;;;;;;13.75;12.35;;;19.30;99.90;;;;;;5035126;28;20207;-59
2023/06/21 04:42:09;;;;;;;14.48;11.75;;;19.30;99.90;;;;;;5034983;28;20638;-59
2023/06/21 04:44:35;;;;;;;12.55;11.25;;;19.30;99.90;;;;;;5034988;28;20350;-59
2023/06/21 04:47:01;;;;;;;13.07;11.43;;;19.40;99.90;;;;;;5034767;28;20588;-60
2023/06/21 04:49:26;;;;;;;13.02;11.73;;;19.40;99.90;;;;;;5037120;28;20275;-59
2023/06/21 04:51:58;;;;;;;13.30;11.32;;;19.40;99.90;;;;;;5037289;28;20254;-59
2023/06/21 04:54:28;;;;;;;13.85;12.02;;;19.40;99.90;;;;;;5034908;28;20176;-59
2023/06/21 04:56:54;;;;;;;12.15;11.00;;;19.30;99.90;;;;;;5034806;28;20176;-59
2023/06/21 04:59:20;;;;;;;11.73;10.52;;;19.30;99.90;;;;;;5034513;28;20750;-59
2023/06/21 05:01:46;;;;;;;11.82;10.63;;;19.30;99.90;;;;;;5034507;28;20266;-57
2023/06/21 05:04:11;;;;;;;13.10;10.60;;;19.30;99.90;;;;;;5034776;28;20710;-57
2023/06/21 05:06:38;;;;;;;11.50;9.70;;;19.20;99.90;;;;;;5034476;28;20664;-60
2023/06/21 05:09:04;;;;;;;10.48;9.38;;;19.20;99.90;;;;;;5033444;28;20215;-59
2023/06/21 05:11:29;;;;;;;9.45;8.50;;;19.10;99.90;;;;;;5034653;28;20176;-59
2023/06/21 05:13:55;;;;;;;9.95;8.95;;;19.10;99.90;;;;;;5034374;28;20187;-59
2023/06/21 05:16:21;;;;;;;10.18;8.98;;;19.10;99.90;;;;;;5034260;28;20664;-59
2023/06/21 05:18:46;;;;;;;10.38;8.45;;;19.10;99.90;;;;;;5033169;28;20232;-59
2023/06/21 05:21:12;;;;;;;8.98;8.07;;;19.10;99.90;;;;;;5034383;28;20176;-59
2023/06/21 05:23:38;;;;;;;8.88;8.05;;;19.00;99.90;;;;;;5034308;28;20175;-59
2023/06/21 05:26:03;;;;;;;11.15;8.50;;;19.10;99.90;;;;;;5034210;28;20187;-59
2023/06/21 05:28:29;;;;;;;9.52;8.57;;;19.10;99.90;;;;;;5034064;28;20176;-59
2023/06/21 05:30:55;;;;;;;8.63;7.75;;;19.20;99.90;;;;;;5033983;28;20183;-59
2023/06/21 05:33:20;;;;;;;9.05;7.90;;;19.30;99.90;;;;;;5034110;28;20203;-59
2023/06/21 05:35:46;;;;;;;9.30;8.27;;;19.30;99.90;;;;;;5033960;28;20237;-59
2023/06/21 05:38:12;;;;;;;8.07;7.25;;;19.30;99.90;;;;;;5033913;28;20685;-59
2023/06/21 05:40:37;;;;;;;8.80;7.90;;;19.20;99.90;;;;;;5033913;28;20173;-59
2023/06/21 05:43:04;;;;;;;8.63;7.18;;;19.20;99.90;;;;;;5033771;28;20180;-59
2023/06/21 05:45:29;;;;;;;8.20;6.78;;;19.30;99.90;;;;;;5033737;28;20229;-59
2023/06/21 05:47:57;;;;;;;7.93;7.20;;;19.30;99.90;;;;;;5034228;28;20648;-59
2023/06/21 05:50:23;;;;;;;8.32;7.47;;;19.20;99.90;;;;;;5033512;28;20511;-60
2023/06/21 05:52:49;;;;;;;8.63;7.60;;;19.30;99.90;;;;;;5033714;28;20178;-59
2023/06/21 05:55:14;;;;;;;9.43;7.03;;;19.40;99.90;;;;;;5033658;28;20172;-59
2023/06/21 05:57:40;;;;;;;7.50;6.68;;;19.40;99.90;;;;;;5033486;28;20588;-59
2023/06/21 06:00:09;;;;;;;7.95;6.90;;;19.30;99.90;;;;;;5033406;28;20216;-59
2023/06/21 06:02:35;;;;;;;8.07;7.28;;;19.30;99.90;;;;;;5033589;28;20502;-59
2023/06/21 06:05:01;;;;;;;7.50;6.72;;;19.40;99.90;;;;;;5033652;28;20226;-59
2023/06/21 06:07:26;;;;;;;9.70;6.80;;;19.50;99.90;;;;;;5033504;28;20176;-59
2023/06/21 06:09:52;;;;;;;10.18;6.70;;;19.60;99.90;;;;;;5033485;28;20191;-59
2023/06/21 06:12:18;;;;;;;7.15;6.45;;;19.70;99.90;;;;;;5033352;28;20537;-59
2023/06/21 06:14:44;;;;;;;7.07;6.47;;;19.80;99.90;;;;;;5033212;28;20187;-59
2023/06/21 06:17:10;;;;;;;8.35;6.57;;;19.80;99.90;;;;;;5033312;28;20224;-59
2023/06/21 06:19:35;;;;;;;7.47;6.72;;;19.90;99.90;;;;;;5033457;28;20211;-60
2023/06/21 06:22:01;;;;;;;7.60;6.75;;;19.80;99.90;;;;;;5033519;28;20175;-59
2023/06/21 06:24:27;;;;;;;8.30;6.30;;;19.90;99.90;;;;;;5033342;28;20176;-59
2023/06/21 06:26:54;;;;;;;7.20;6.10;;;19.90;99.90;;;;;;5033174;28;20176;-59
2023/06/21 06:29:19;;;;;;;7.18;6.47;;;19.90;99.90;;;;;;5033052;28;20641;-59
2023/06/21 06:31:45;;;;;;;6.55;5.95;;;20.00;99.90;;;;;;5033118;28;20176;-59
2023/06/21 06:34:11;;;;;;;7.65;6.45;;;20.00;99.90;;;;;;5033303;28;20180;-59
2023/06/21 06:36:36;;;;;;;8.05;5.70;;;20.00;99.90;;;;;;5033099;28;20172;-59
2023/06/21 06:39:02;;;;;;;8.75;6.28;;;20.00;99.90;;;;;;5033106;28;20239;-59
2023/06/21 06:41:28;;;;;;;8.02;6.03;;;20.10;99.90;;;;;;5033104;28;20183;-59
2023/06/21 06:43:54;;;;;;;8.82;5.80;;;20.10;99.90;;;;;;5032873;28;20181;-59
2023/06/21 06:46:28;;;;;;;6.18;5.57;;;20.20;99.90;;;;;;5033166;28;20180;-59
2023/06/21 06:48:54;;;;;;;6.57;5.88;;;20.20;99.90;;;;;;5015619;28;20175;-60
2023/06/21 06:51:20;;;;;;;6.55;5.18;;;20.20;99.90;;;;;;5033049;28;20583;-59
2023/06/21 06:53:47;;;;;;;8.30;5.30;;;20.20;99.90;;;;;;5032949;28;20693;-59
2023/06/21 06:56:13;;;;;;;7.35;4.97;;;20.20;99.90;;;;;;5032870;28;20676;-59
2023/06/21 06:58:39;;;;;;;8.63;5.15;;;20.20;99.90;;;;;;5032780;28;20208;-59
2023/06/21 07:01:05;;;;;;;5.63;5.00;;;20.20;99.90;;;;;;5033137;28;20211;-59
2023/06/21 07:03:32;;;;;;;6.35;5.18;;;20.30;99.90;;;;;;5032953;28;20263;-59
2023/06/21 07:05:58;;;;;;;7.05;4.97;;;20.30;99.90;;;;;;5032899;28;20184;-59
2023/06/21 07:08:23;;;;;;;8.35;5.10;;;20.30;99.90;;;;;;5032909;28;20176;-59
2023/06/21 07:10:49;;;;;;;8.07;5.95;;;20.50;99.90;;;;;;5032860;28;20204;-59
2023/06/21 07:13:15;;;;;;;8.38;5.75;;;20.60;99.90;;;;;;5032650;28;20180;-59
2023/06/21 07:15:41;;;;;;;6.50;5.90;;;20.80;99.90;;;;;;5032942;28;20176;-59
2023/06/21 07:18:06;;;;;;;8.55;5.72;;;20.80;99.90;;;;;;5032710;28;20585;-59
2023/06/21 07:20:32;;;;;;;6.38;5.43;;;21.00;99.90;;;;;;5032698;28;20511;-59
2023/06/21 07:22:58;;;;;;;7.32;6.35;;;21.00;99.90;;;;;;5032810;28;20176;-59
2023/06/21 07:25:24;;;;;;;6.85;5.38;;;21.10;99.90;;;;;;5032689;28;20226;-59
2023/06/21 07:27:50;;;;;;;10.10;6.22;;;21.20;99.90;;;;;;5032615;28;20176;-59
2023/06/21 07:30:16;;;;;;;6.40;5.78;;;21.20;99.90;;;;;;5032809;28;20664;-59
2023/06/21 07:32:42;;;;;;;6.32;5.60;;;21.10;99.90;;;;;;5032692;28;20176;-59
2023/06/21 07:35:08;;;;;;;5.97;5.38;;;21.00;99.90;;;;;;5032584;28;20180;-59
2023/06/21 07:37:34;;;;;;;6.63;5.35;;;21.40;99.90;;;;;;5032484;28;20633;-59
2023/06/21 07:40:01;;;;;;;9.77;5.95;;;21.40;99.90;;;;;;5032472;28;20215;-59
2023/06/21 07:42:26;;;;;;;7.80;5.95;;;21.50;99.90;;;;;;5033755;28;20179;-59
2023/06/21 07:44:53;;;;;;;6.07;5.47;;;21.40;99.90;;;;;;5036186;28;20175;-59
2023/06/21 07:47:19;;;;;;;7.00;5.22;;;21.70;99.90;;;;;;5036075;28;20637;-59
2023/06/21 07:49:45;;;;;;;7.47;4.93;;;21.60;99.90;;;;;;5035941;28;20183;-59
2023/06/21 07:52:11;;;;;;;6.05;5.45;;;21.70;99.90;;;;;;5035981;28;20254;-59
2023/06/21 07:54:37;;;;;;;7.35;5.28;;;21.80;99.90;;;;;;5035846;28;20176;-59
2023/06/21 07:57:03;;;;;;;7.85;5.30;;;22.10;99.90;;;;;;5035744;28;20176;-59
2023/06/21 07:59:31;;;;;;;5.60;4.70;;;22.10;99.90;;;;;;5035625;28;20705;-59
2023/06/21 08:01:56;;;;;;;6.90;5.10;;;22.20;99.90;;;;;;5035881;28;20212;-59
2023/06/21 08:04:22;;;;;;;6.22;4.57;;;22.10;99.90;;;;;;5036077;28;20584;-59
2023/06/21 08:06:47;;;;;;;5.07;4.63;;;22.20;99.90;;;;;;5035677;28;20511;-59
2023/06/21 08:09:13;;;;;;;4.78;4.28;;;22.30;99.90;;;;;;5035698;28;20625;-60
2023/06/21 08:11:39;;;;;;;5.43;4.40;;;22.30;99.90;;;;;;5035506;28;20541;-60
2023/06/21 08:14:04;;;;;;;7.45;4.78;;;22.50;99.90;;;;;;5035693;28;20204;-59
2023/06/21 08:16:31;;;;;;;4.82;4.32;;;22.40;99.90;;;;;;5035591;28;20694;-60
2023/06/21 08:18:56;;;;;;;4.78;3.83;;;22.50;99.90;;;;;;5035494;28;20231;-59
2023/06/21 08:21:22;;;;;;;4.13;3.72;;;22.80;99.90;;;;;;5035367;28;20656;-59
2023/06/21 08:23:47;;;;;;;5.53;3.85;;;22.70;99.90;;;;;;5035386;28;20254;-59
2023/06/21 08:26:13;;;;;;;4.72;4.30;;;22.70;99.90;;;;;;5035309;28;20254;-59
2023/06/21 08:28:39;;;;;;;5.00;3.78;;;22.80;99.90;;;;;;5017831;28;20690;-60
2023/06/21 08:31:04;;;;;;;5.65;4.35;;;22.70;99.90;;;;;;5035215;28;20633;-59
2023/06/21 08:33:30;;;;;;;6.45;4.50;;;22.90;99.90;;;;;;5035235;28;20226;-60
2023/06/21 08:35:56;;;;;;;5.75;3.80;;;23.00;99.90;;;;;;5035191;28;20637;-60
2023/06/21 08:38:21;;;;;;;5.82;4.70;;;23.00;99.90;;;;;;5034959;28;20242;-60
2023/06/21 08:40:47;;;;;;;4.97;3.95;;;23.20;99.90;;;;;;5017241;28;20172;-60
2023/06/21 08:43:13;;;;;;;7.10;4.28;;;23.10;99.90;;;;;;5035163;28;20191;-60
2023/06/21 08:45:38;;;;;;;5.15;4.65;;;23.20;99.90;;;;;;5035103;28;20172;-60
2023/06/21 08:48:06;;;;;;;7.47;5.00;;;23.30;99.90;;;;;;5035054;28;20176;-60
2023/06/21 08:50:36;;;;;;;6.60;4.30;;;23.40;99.90;;;;;;5034955;28;20172;-60
2023/06/21 08:53:06;;;;;;;6.93;4.32;;;23.40;99.90;;;;;;5034706;28;20256;-59
2023/06/21 08:55:35;;;;;;;5.60;4.53;;;23.40;99.90;;;;;;5034795;28;20540;-60
2023/06/21 08:58:09;;;;;;;6.93;4.40;;;23.50;99.90;;;;;;5034791;28;20238;-60
2023/06/21 09:00:55;;;;;;;5.93;3.97;;;23.70;99.90;;;;;;5034707;28;20247;-60
2023/06/21 09:03:29;;;;;;;5.10;4.38;;;23.70;99.90;;;;;;5034683;28;20176;-60
2023/06/21 09:06:15;;;;;;;6.22;4.22;;;23.90;99.90;;;;;;5034557;28;20642;-60
2023/06/21 09:08:42;;;;;;;5.00;4.43;;;24.10;99.90;;;;;;5034691;28;20217;-60
2023/06/21 09:11:09;;;;;;;6.20;3.78;;;24.10;99.90;;;;;;5034483;28;20521;-61
2023/06/21 09:13:37;;;;;;;6.55;3.97;;;24.10;99.90;;;;;;5034596;28;20636;-60
2023/06/21 09:16:03;;;;;;;4.20;3.78;;;23.80;99.90;;;;;;5034403;28;20213;-60
2023/06/21 09:18:35;;;;;;;4.50;4.10;;;24.00;99.90;;;;;;5034007;28;20227;-60
2023/06/21 09:21:02;;;;;;;4.20;3.63;;;24.30;99.90;;;;;;5034429;28;20176;-60
2023/06/21 09:23:28;;;;;;;4.22;3.53;;;24.30;99.90;;;;;;5034237;28;20180;-60
2023/06/21 09:25:55;;;;;;;4.13;3.70;;;24.40;99.90;;;;;;5034308;28;20175;-60
2023/06/21 09:28:20;;;;;;;4.72;3.55;;;24.50;99.90;;;;;;5034164;28;20182;-60
2023/06/21 09:30:46;;;;;;;5.00;3.42;;;24.60;99.90;;;;;;5034078;28;20262;-60
2023/06/21 09:33:12;;;;;;;3.90;3.40;;;24.70;99.90;;;;;;5034369;28;20625;-60
2023/06/21 09:35:38;;;;;;;3.47;2.70;;;24.80;99.90;;;;;;5034258;28;20263;-60
2023/06/21 09:38:28;;;;;;;4.30;3.03;;;24.90;99.90;;;;;;5034049;28;20210;-60
2023/06/21 09:40:54;;;;;;;6.53;3.05;;;24.90;99.90;;;;;;5033970;28;20168;-60
2023/06/21 09:43:21;;;;;;;3.58;2.78;;;25.10;99.90;;;;;;5033781;28;20239;-60
2023/06/21 09:46:11;;;;;;;3.38;2.75;;;25.10;99.90;;;;;;5034022;28;20649;-60
2023/06/21 09:48:38;;;;;;;3.97;3.22;;;25.10;99.90;;;;;;5033936;28;20183;-60
2023/06/21 09:51:11;;;;;;;4.25;3.83;;;25.20;99.90;;;;;;5033805;28;20180;-61
2023/06/21 09:53:37;;;;;;;4.28;3.30;;;25.30;99.90;;;;;;5033702;28;20184;-60
2023/06/21 09:56:03;;;;;;;5.13;3.50;;;25.30;99.90;;;;;;5033829;28;20175;-60
2023/06/21 09:58:33;;;;;;;6.85;3.40;;;25.10;99.90;;;;;;5033732;28;20722;-61
2023/06/21 10:00:59;;;;;;;4.32;3.17;;;24.80;99.90;;;;;;5033761;28;20660;-60
2023/06/21 10:03:25;;;;;;;4.07;2.80;;;24.90;99.90;;;;;;5033637;28;20204;-60
2023/06/21 10:05:55;;;;;;;4.57;2.85;;;25.00;99.90;;;;;;5033044;28;20176;-61
2023/06/21 10:08:33;;;;;;;4.15;3.00;;;25.10;99.90;;;;;;5033458;28;20230;-61
2023/06/21 10:11:01;;;;;;;4.45;3.20;;;25.40;99.90;;;;;;5033540;28;20179;-61
2023/06/21 10:13:34;;;;;;;3.97;3.20;;;25.40;99.90;;;;;;5033520;28;20225;-61
2023/06/21 10:16:02;;;;;;;4.68;2.78;;;25.50;99.90;;;;;;5033561;28;20246;-60
2023/06/21 10:18:28;;;;;;;4.18;2.63;;;25.60;99.90;;;;;;5032953;28;20239;-61
2023/06/21 10:21:00;;;;;;;4.07;2.70;;;25.30;99.90;;;;;;5033269;28;20703;-60
2023/06/21 10:23:31;;;;;;;3.88;2.80;;;25.70;99.90;;;;;;5033504;28;20180;-60
2023/06/21 10:26:02;;;;;;;9.05;3.60;;;26.00;99.90;;;;;;5033472;28;20179;-61
2023/06/21 10:28:31;;;;;;;6.28;3.40;;;26.00;99.90;;;;;;5033557;28;20172;-61
2023/06/21 10:30:58;;;;;;;4.72;3.60;;;25.90;99.90;;;;;;5033261;28;20176;-61
2023/06/21 10:33:29;;;;;;;3.50;3.10;;;25.80;99.90;;;;;;5033199;28;20179;-61
2023/06/21 10:35:59;;;;;;;5.15;3.38;;;25.70;99.90;;;;;;5033297;28;20176;-60
2023/06/21 10:38:47;;;;;;;4.18;3.28;;;25.60;99.90;;;;;;5033067;28;20200;-61
2023/06/21 10:41:14;;;;;;;4.57;2.60;;;25.40;99.90;;;;;;5033219;28;20176;-61
2023/06/21 10:43:41;;;;;;;3.70;2.72;;;25.60;99.90;;;;;;5033131;28;20229;-61
2023/06/21 10:46:09;;;;;;;3.28;2.45;;;25.90;99.90;;;;;;5033086;28;20179;-61
2023/06/21 10:48:35;;;;;;;5.45;2.28;;;25.80;99.90;;;;;;5033305;28;20679;-61
2023/06/21 10:51:02;;;;;;;3.00;1.65;;;26.10;99.90;;;;;;5033266;28;20180;-61
2023/06/21 10:53:32;;;;;;;3.72;2.20;;;26.30;99.90;;;;;;5033067;28;20163;-61
2023/06/21 10:56:00;;;;;;;2.88;2.20;;;26.40;99.90;;;;;;5033000;28;20172;-61
2023/06/21 10:58:27;;;;;;;5.60;2.42;;;26.20;99.90;;;;;;5032962;28;20286;-60
2023/06/21 11:00:54;;;;;;;2.78;1.77;;;26.30;99.90;;;;;;5033071;28;20669;-61
2023/06/21 11:03:25;;;;;;;3.55;2.08;;;26.30;99.90;;;;;;5033107;28;20172;-61
2023/06/21 11:06:21;;;;;;;2.75;2.30;;;26.40;99.90;;;;;;5033018;28;20266;-61
2023/06/21 11:08:47;;;;;;;5.43;2.90;;;26.50;99.90;;;;;;5032792;28;20172;-61
2023/06/21 11:11:33;;;;;;;5.68;2.78;;;26.70;99.90;;;;;;5032788;28;20179;-61
2023/06/21 11:14:03;;;;;;;3.22;2.65;;;26.40;99.90;;;;;;5032746;28;20521;-60
2023/06/21 11:16:31;;;;;;;3.63;2.80;;;26.40;99.90;;;;;;5033106;28;20640;-61
2023/06/21 11:19:02;;;;;;;6.65;2.40;;;26.30;99.90;;;;;;5036288;28;20227;-61
2023/06/21 11:21:41;;;;;;;3.10;2.75;;;26.10;99.90;;;;;;5036494;28;20172;-61
2023/06/21 11:24:12;;;;;;;3.80;2.42;;;26.00;99.90;;;;;;5036592;28;20306;-61
2023/06/21 11:26:57;;;;;;;3.45;2.72;;;26.30;99.90;;;;;;5036476;28;20176;-61
2023/06/21 11:29:38;;;;;;;4.13;2.67;;;26.00;99.90;;;;;;5036424;28;20175;-61
2023/06/21 11:32:15;;;;;;;6.75;3.10;;;26.00;99.90;;;;;;5036505;28;20172;-61
2023/06/21 11:34:53;;;;;;;5.15;3.20;;;26.40;99.90;;;;;;5036349;28;20172;-61
2023/06/21 11:37:32;;;;;;;3.28;2.60;;;26.20;99.90;;;;;;5036215;28;20186;-61
2023/06/21 11:40:03;;;;;;;4.18;3.42;;;25.80;99.90;;;;;;5036007;28;20211;-61
2023/06/21 11:42:52;;;;;;;4.55;2.88;;;25.90;99.90;;;;;;5036319;28;20259;-61
2023/06/21 11:45:19;;;;;;;3.63;2.92;;;25.90;99.90;;;;;;5036151;28;20180;-61
2023/06/21 11:48:03;;;;;;;3.85;2.75;;;26.20;99.90;;;;;;5036183;28;20172;-61
2023/06/21 11:50:34;;;;;;;3.10;2.75;;;26.50;99.90;;;;;;5035932;28;20176;-61
2023/06/21 11:53:20;;;;;;;3.55;3.17;;;26.60;99.90;;;;;;5036257;28;20263;-61
2023/06/21 11:55:49;;;;;;;3.92;2.80;;;26.60;99.90;;;;;;5035984;28;20180;-61
2023/06/21 11:58:15;;;;;;;3.03;2.17;;;26.90;99.90;;;;;;5035906;28;20175;-61
2023/06/21 12:00:41;;;;;;;2.60;2.35;;;27.00;99.90;;;;;;5035731;28;20532;-61
2023/06/21 12:03:09;;;;;;;2.53;2.33;;;27.10;99.90;;;;;;5035566;28;20180;-61
2023/06/21 12:05:54;;;;;;;4.88;2.72;;;26.80;99.90;;;;;;5036117;28;20183;-61
2023/06/21 12:08:25;;;;;;;3.97;2.30;;;26.90;99.90;;;;;;5035921;28;20171;-61
2023/06/21 12:10:51;;;;;;;7.65;2.40;;;26.80;99.90;;;;;;5035532;28;20645;-61
2023/06/21 12:13:20;;;;;;;2.72;2.10;;;27.10;99.90;;;;;;5035572;28;20183;-61
2023/06/21 12:15:53;;;;;;;2.35;1.77;;;27.30;99.90;;;;;;5035466;28;20176;-61
2023/06/21 12:18:20;;;;;;;2.95;1.80;;;27.30;99.90;;;;;;5035540;28;20235;-61
2023/06/21 12:20:52;;;;;;;2.20;1.70;;;27.40;99.90;;;;;;5035456;28;20207;-61
2023/06/21 12:23:18;;;;;;;4.82;1.95;;;27.30;99.90;;;;;;5035436;28;20176;-61
2023/06/21 12:25:45;;;;;;;5.05;1.80;;;27.50;99.90;;;;;;5035310;28;20183;-61
2023/06/21 12:28:13;;;;;;;2.25;2.00;;;27.70;99.90;;;;;;5034592;28;20199;-61
2023/06/21 12:30:46;;;;;;;2.42;2.17;;;27.70;99.90;;;;;;5035353;28;20184;-61
2023/06/21 12:33:11;;;;;;;2.63;1.77;;;27.70;99.30;;;;;;5035109;28;20183;-60
2023/06/21 12:35:37;;;;;;;6.45;1.88;;;27.80;99.90;;;;;;5035204;28;20176;-61
2023/06/21 12:38:16;;;;;;;3.40;2.13;;;27.90;99.90;;;;;;5034936;28;20203;-61
2023/06/21 12:40:56;;;;;;;3.35;2.13;;;27.80;99.90;;;;;;5034904;28;20281;-61
2023/06/21 12:43:32;;;;;;;5.63;2.00;;;27.80;99.60;;;;;;5035084;28;20266;-61